Time;durP1;ratioP1;P1;durP2;ratioP2;P2;SDS_P1;SDS_P2;PMS_P1;PMS_P2;Temp;Humidity;BMP_temperature;BMP_pressure;BME280_temperature;BME280_humidity;BME280_pressure;Samples;Min_cycle;Max_cycle;Signal;HPM_P1;HPM_P2
2024/04/13 00:00:36;;;;;;;0.60;0.60;;;;;;;;;;5417482;26;20247;-74
2024/04/13 00:03:02;;;;;;;0.60;0.60;;;;;;;;;;5419551;26;20775;-74
2024/04/13 00:05:30;;;;;;;0.70;0.70;;;;;;;;;;5417882;26;20244;-75
2024/04/13 00:07:58;;;;;;;0.60;0.60;;;;;;;;;;5417655;26;20293;-75
2024/04/13 00:10:26;;;;;;;0.73;0.73;;;;;;;;;;5420007;26;20273;-73
2024/04/13 00:12:52;;;;;;;0.60;0.60;;;;;;;;;;5419611;26;20761;-75
2024/04/13 00:15:20;;;;;;;0.70;0.70;;;;;;;;;;5422866;26;20288;-75
2024/04/13 00:17:45;;;;;;;0.70;0.70;;;;;;;;;;5425935;26;20244;-74
2024/04/13 00:20:13;;;;;;;0.70;0.70;;;;;;;;;;5414316;26;20892;-73
2024/04/13 00:22:38;;;;;;;0.70;0.70;;;;;;;;;;5417231;26;20290;-75
2024/04/13 00:25:10;;;;;;;0.60;0.60;;;;;;;;;;5425049;26;20244;-75
2024/04/13 00:27:36;;;;;;;0.70;0.70;;;;;;;;;;5418347;26;20350;-75
2024/04/13 00:30:04;;;;;;;0.75;0.75;;;;;;;;;;5418979;26;20310;-74
2024/04/13 00:32:30;;;;;;;0.70;0.70;;;;;;;;;;5417459;26;20244;-74
2024/04/13 00:34:58;;;;;;;0.80;0.80;;;;;;;;;;5413149;26;20282;-74
2024/04/13 00:37:23;;;;;;;0.70;0.70;;;;;;;;;;5416564;26;20260;-75
2024/04/13 00:39:51;;;;;;;0.70;0.70;;;;;;;;;;5416430;26;20231;-74
2024/04/13 00:42:21;;;;;;;0.65;0.65;;;;;;;;;;5413838;26;20254;-74
2024/04/13 00:45:01;;;;;;;0.60;0.60;;;;;;;;;;5428054;26;20741;-73
2024/04/13 00:47:26;;;;;;;0.70;0.70;;;;;;;;;;5415893;26;20360;-74
2024/04/13 00:49:55;;;;;;;1.60;1.60;;;;;;;;;;5410171;26;20247;-75
2024/04/13 00:52:23;;;;;;;0.70;0.70;;;;;;;;;;5413653;26;20585;-75
2024/04/13 00:54:55;;;;;;;0.70;0.70;;;;;;;;;;5418393;26;20236;-74
2024/04/13 00:57:23;;;;;;;0.70;0.70;;;;;;;;;;5414449;26;20247;-74
2024/04/13 00:59:52;;;;;;;0.60;0.60;;;;;;;;;;5417907;26;20251;-74
2024/04/13 01:02:18;;;;;;;0.70;0.70;;;;;;;;;;5415131;26;20752;-74
2024/04/13 01:04:48;;;;;;;0.60;0.60;;;;;;;;;;5415528;26;20786;-75
2024/04/13 01:07:16;;;;;;;0.80;0.80;;;;;;;;;;5413656;26;20971;-74
2024/04/13 01:09:45;;;;;;;0.70;0.70;;;;;;;;;;5418513;26;20255;-74
2024/04/13 01:12:11;;;;;;;0.70;0.70;;;;;;;;;;5413773;26;20669;-75
2024/04/13 01:14:41;;;;;;;0.63;0.63;;;;;;;;;;5418584;26;20293;-74
2024/04/13 01:17:07;;;;;;;0.70;0.70;;;;;;;;;;5413451;26;20289;-74
2024/04/13 01:19:35;;;;;;;0.60;0.60;;;;;;;;;;5414722;26;20599;-74
2024/04/13 01:22:01;;;;;;;0.70;0.70;;;;;;;;;;5408317;26;20247;-74
2024/04/13 01:24:32;;;;;;;0.60;0.60;;;;;;;;;;5412520;26;20287;-74
2024/04/13 01:26:57;;;;;;;0.80;0.80;;;;;;;;;;5414311;26;20248;-74
2024/04/13 01:29:25;;;;;;;0.60;0.60;;;;;;;;;;5413288;26;20608;-74
2024/04/13 01:31:51;;;;;;;0.73;0.73;;;;;;;;;;5415468;26;20243;-74
2024/04/13 01:34:19;;;;;;;0.70;0.70;;;;;;;;;;5413883;26;20793;-74
2024/04/13 01:36:44;;;;;;;0.65;0.65;;;;;;;;;;5412474;26;20255;-75
2024/04/13 01:39:13;;;;;;;0.65;0.65;;;;;;;;;;5413450;26;21057;-74
2024/04/13 01:41:42;;;;;;;0.60;0.60;;;;;;;;;;5416999;26;20744;-75
2024/04/13 01:44:11;;;;;;;0.68;0.68;;;;;;;;;;5413549;26;20240;-75
2024/04/13 01:46:37;;;;;;;0.70;0.70;;;;;;;;;;5413905;26;20736;-75
2024/04/13 01:49:05;;;;;;;0.60;0.60;;;;;;;;;;5429364;26;20277;-74
2024/04/13 01:51:30;;;;;;;0.70;0.70;;;;;;;;;;5412476;26;20244;-75
2024/04/13 01:53:58;;;;;;;0.68;0.68;;;;;;;;;;5415553;26;21046;-75
2024/04/13 01:56:24;;;;;;;0.65;0.65;;;;;;;;;;5414148;26;22946;-75
2024/04/13 01:58:55;;;;;;;0.60;0.60;;;;;;;;;;5423551;26;20243;-74
2024/04/13 02:01:20;;;;;;;0.70;0.70;;;;;;;;;;5421946;26;21673;-74
2024/04/13 02:03:48;;;;;;;0.70;0.70;;;;;;;;;;5417494;26;20251;-75
2024/04/13 02:06:14;;;;;;;0.60;0.60;;;;;;;;;;5412432;26;20255;-74
2024/04/13 02:08:42;;;;;;;0.70;0.70;;;;;;;;;;5415152;26;20290;-74
2024/04/13 02:11:08;;;;;;;0.60;0.60;;;;;;;;;;5415097;26;20247;-75
2024/04/13 02:13:36;;;;;;;0.70;0.70;;;;;;;;;;5416450;26;20362;-75
2024/04/13 02:16:04;;;;;;;0.70;0.70;;;;;;;;;;5415887;26;20278;-75
2024/04/13 02:18:32;;;;;;;0.70;0.70;;;;;;;;;;5414350;26;20270;-75
2024/04/13 02:20:58;;;;;;;0.65;0.65;;;;;;;;;;5414097;26;20712;-75
2024/04/13 02:23:26;;;;;;;1.38;1.38;;;;;;;;;;5415668;26;20276;-75
2024/04/13 02:25:51;;;;;;;0.60;0.60;;;;;;;;;;5416608;26;23553;-75
2024/04/13 02:28:20;;;;;;;0.70;0.70;;;;;;;;;;5413112;26;20248;-75
2024/04/13 02:30:45;;;;;;;0.60;0.60;;;;;;;;;;5417028;26;20594;-75
2024/04/13 02:33:16;;;;;;;0.60;0.60;;;;;;;;;;5415433;26;20283;-76
2024/04/13 02:35:42;;;;;;;0.60;0.60;;;;;;;;;;5413370;26;20830;-75
2024/04/13 02:38:10;;;;;;;0.60;0.60;;;;;;;;;;5420374;26;20243;-74
2024/04/13 02:40:35;;;;;;;0.60;0.60;;;;;;;;;;5422015;26;20266;-75
2024/04/13 02:43:05;;;;;;;0.55;0.55;;;;;;;;;;5419879;26;20282;-75
2024/04/13 02:45:31;;;;;;;0.60;0.60;;;;;;;;;;5427781;26;20251;-74
2024/04/13 02:47:59;;;;;;;0.60;0.60;;;;;;;;;;5417001;26;20247;-75
2024/04/13 02:50:27;;;;;;;0.60;0.60;;;;;;;;;;5413214;26;21037;-75
2024/04/13 02:52:57;;;;;;;0.60;0.60;;;;;;;;;;5417151;26;20235;-75
2024/04/13 02:55:23;;;;;;;0.60;0.60;;;;;;;;;;5419127;26;20774;-75
2024/04/13 02:57:51;;;;;;;0.60;0.60;;;;;;;;;;5419214;26;20300;-74
2024/04/13 03:00:16;;;;;;;0.60;0.60;;;;;;;;;;5416406;26;20255;-75
2024/04/13 03:02:44;;;;;;;0.95;0.95;;;;;;;;;;5416377;26;21493;-75
2024/04/13 03:05:10;;;;;;;0.70;0.70;;;;;;;;;;5415612;26;20576;-74
2024/04/13 03:07:41;;;;;;;0.60;0.60;;;;;;;;;;5414861;26;20288;-75
2024/04/13 03:10:06;;;;;;;0.60;0.60;;;;;;;;;;5418430;26;20823;-75
2024/04/13 03:12:34;;;;;;;0.68;0.68;;;;;;;;;;5414490;26;20369;-74
2024/04/13 03:15:00;;;;;;;0.60;0.60;;;;;;;;;;5418582;26;20815;-75
2024/04/13 03:17:28;;;;;;;0.60;0.60;;;;;;;;;;5412488;26;20243;-74
2024/04/13 03:19:53;;;;;;;0.60;0.60;;;;;;;;;;5415940;26;20640;-75
2024/04/13 03:22:22;;;;;;;0.70;0.70;;;;;;;;;;5418678;26;20239;-75
2024/04/13 03:24:50;;;;;;;0.70;0.70;;;;;;;;;;5418978;26;20566;-74
2024/04/13 03:27:18;;;;;;;0.68;0.68;;;;;;;;;;5416517;26;20771;-75
2024/04/13 03:29:44;;;;;;;0.63;0.63;;;;;;;;;;5416733;26;20286;-75
2024/04/13 03:32:12;;;;;;;0.70;0.70;;;;;;;;;;5416443;26;20559;-74
2024/04/13 03:34:37;;;;;;;0.63;0.63;;;;;;;;;;5419917;26;20744;-74
2024/04/13 03:37:07;;;;;;;0.60;0.60;;;;;;;;;;5416461;26;20286;-74
2024/04/13 03:39:35;;;;;;;0.60;0.60;;;;;;;;;;5418181;26;20588;-75
2024/04/13 03:42:06;;;;;;;0.70;0.70;;;;;;;;;;5413660;26;20248;-74
2024/04/13 03:44:34;;;;;;;0.70;0.70;;;;;;;;;;5427621;26;20255;-75
2024/04/13 03:47:00;;;;;;;0.70;0.70;;;;;;;;;;5416280;26;21069;-75
2024/04/13 03:49:28;;;;;;;0.77;0.77;;;;;;;;;;5416553;26;20244;-75
2024/04/13 03:51:53;;;;;;;0.70;0.70;;;;;;;;;;5413698;26;22739;-75
2024/04/13 03:54:21;;;;;;;0.70;0.70;;;;;;;;;;5417013;26;20844;-75
2024/04/13 03:56:48;;;;;;;1.35;1.35;;;;;;;;;;5414128;26;20290;-75
2024/04/13 03:59:18;;;;;;;0.70;0.70;;;;;;;;;;5417222;26;20248;-75
2024/04/13 04:01:44;;;;;;;0.70;0.70;;;;;;;;;;5417231;26;20788;-75
2024/04/13 04:04:12;;;;;;;0.60;0.60;;;;;;;;;;5415298;26;20271;-75
2024/04/13 04:06:37;;;;;;;0.60;0.60;;;;;;;;;;5412395;26;20336;-75
2024/04/13 04:09:06;;;;;;;0.80;0.80;;;;;;;;;;5415421;26;22988;-74
2024/04/13 04:11:31;;;;;;;0.60;0.60;;;;;;;;;;5417241;26;20255;-74
2024/04/13 04:14:00;;;;;;;0.60;0.60;;;;;;;;;;5418651;26;22509;-74
2024/04/13 04:16:28;;;;;;;0.55;0.55;;;;;;;;;;5417126;26;20286;-75
2024/04/13 04:18:56;;;;;;;0.60;0.60;;;;;;;;;;5433516;26;20883;-75
2024/04/13 04:21:24;;;;;;;0.60;0.60;;;;;;;;;;5428230;26;20279;-75
2024/04/13 04:23:52;;;;;;;0.70;0.70;;;;;;;;;;5423145;26;20319;-75
2024/04/13 04:26:18;;;;;;;0.70;0.70;;;;;;;;;;5417046;26;20568;-74
2024/04/13 04:28:46;;;;;;;0.60;0.60;;;;;;;;;;5417953;26;20294;-75
2024/04/13 04:31:12;;;;;;;0.70;0.70;;;;;;;;;;5418848;26;20985;-75
2024/04/13 04:33:43;;;;;;;0.63;0.63;;;;;;;;;;5417520;26;20533;-74
2024/04/13 04:36:09;;;;;;;0.70;0.70;;;;;;;;;;5413511;26;20250;-75
2024/04/13 04:38:37;;;;;;;0.60;0.60;;;;;;;;;;5417253;26;20967;-75
2024/04/13 04:41:02;;;;;;;0.70;0.70;;;;;;;;;;5417150;26;20251;-74
2024/04/13 04:43:30;;;;;;;0.70;0.70;;;;;;;;;;5429538;26;20557;-75
2024/04/13 04:45:55;;;;;;;0.60;0.60;;;;;;;;;;5418197;26;20294;-75
2024/04/13 04:48:24;;;;;;;0.70;0.70;;;;;;;;;;5417867;26;20602;-73
2024/04/13 04:50:57;;;;;;;0.65;0.65;;;;;;;;;;5412435;26;20247;-75
2024/04/13 04:53:25;;;;;;;0.60;0.60;;;;;;;;;;5416655;26;20281;-74
2024/04/13 04:55:51;;;;;;;0.65;0.65;;;;;;;;;;5421049;26;20712;-73
2024/04/13 04:58:19;;;;;;;0.65;0.65;;;;;;;;;;5419590;26;20353;-75
2024/04/13 05:00:45;;;;;;;0.60;0.60;;;;;;;;;;5419002;26;22494;-75
2024/04/13 05:03:14;;;;;;;0.63;0.63;;;;;;;;;;5414367;26;20241;-75
2024/04/13 05:05:40;;;;;;;0.70;0.70;;;;;;;;;;5417052;26;20768;-74
2024/04/13 05:08:11;;;;;;;0.70;0.70;;;;;;;;;;5417711;26;20623;-75
2024/04/13 05:10:37;;;;;;;0.70;0.70;;;;;;;;;;5414420;26;20319;-75
2024/04/13 05:13:05;;;;;;;0.70;0.70;;;;;;;;;;5414238;26;20246;-75
2024/04/13 05:15:31;;;;;;;0.60;0.60;;;;;;;;;;5415256;26;20343;-75
2024/04/13 05:17:59;;;;;;;0.70;0.70;;;;;;;;;;5412528;26;20869;-75
2024/04/13 05:20:24;;;;;;;0.70;0.70;;;;;;;;;;5412174;26;23290;-75
2024/04/13 05:22:52;;;;;;;0.70;0.70;;;;;;;;;;5411601;26;20247;-74
2024/04/13 05:25:20;;;;;;;0.60;0.60;;;;;;;;;;5414399;26;20717;-74
2024/04/13 05:27:48;;;;;;;0.80;0.80;;;;;;;;;;5414148;26;20974;-75
2024/04/13 05:30:14;;;;;;;0.70;0.70;;;;;;;;;;5417598;26;21178;-75
2024/04/13 05:32:43;;;;;;;0.70;0.70;;;;;;;;;;5417929;26;20315;-74
2024/04/13 05:35:08;;;;;;;0.80;0.80;;;;;;;;;;5427344;26;20247;-74
2024/04/13 05:37:36;;;;;;;0.60;0.60;;;;;;;;;;5418690;26;21000;-74
2024/04/13 05:40:04;;;;;;;0.68;0.68;;;;;;;;;;5419171;26;20282;-75
2024/04/13 05:42:35;;;;;;;0.60;0.60;;;;;;;;;;5414792;26;20250;-74
2024/04/13 05:45:00;;;;;;;0.70;0.70;;;;;;;;;;5415176;26;20866;-75
2024/04/13 05:47:28;;;;;;;0.80;0.80;;;;;;;;;;5412717;26;20246;-75
2024/04/13 05:49:53;;;;;;;0.70;0.70;;;;;;;;;;5419083;26;20311;-75
2024/04/13 05:52:21;;;;;;;0.70;0.70;;;;;;;;;;5427254;26;20285;-75
2024/04/13 05:54:47;;;;;;;0.70;0.70;;;;;;;;;;5411436;26;20744;-75
2024/04/13 05:57:15;;;;;;;0.73;0.73;;;;;;;;;;5411121;26;20259;-73
2024/04/13 05:59:43;;;;;;;0.60;0.60;;;;;;;;;;5416074;26;20927;-76
2024/04/13 06:02:11;;;;;;;0.65;0.65;;;;;;;;;;5412999;26;20322;-75
2024/04/13 06:04:36;;;;;;;0.70;0.70;;;;;;;;;;5417814;26;20264;-76
2024/04/13 06:07:05;;;;;;;0.70;0.70;;;;;;;;;;5412927;26;20394;-75
2024/04/13 06:09:30;;;;;;;0.70;0.70;;;;;;;;;;5412897;26;20263;-75
2024/04/13 06:11:58;;;;;;;0.70;0.70;;;;;;;;;;5414046;26;20303;-73
2024/04/13 06:14:24;;;;;;;0.60;0.60;;;;;;;;;;5415297;26;20303;-75
2024/04/13 06:16:54;;;;;;;0.60;0.60;;;;;;;;;;5416975;26;20291;-75
2024/04/13 06:19:20;;;;;;;0.70;0.70;;;;;;;;;;5408435;26;20244;-75
2024/04/13 06:21:48;;;;;;;0.70;0.70;;;;;;;;;;5406931;26;20285;-76
2024/04/13 06:24:13;;;;;;;0.70;0.70;;;;;;;;;;5410294;26;20254;-75
2024/04/13 06:26:41;;;;;;;0.70;0.70;;;;;;;;;;5411664;26;20814;-75
2024/04/13 06:29:06;;;;;;;0.60;0.60;;;;;;;;;;5409053;26;20311;-74
2024/04/13 06:31:35;;;;;;;0.70;0.70;;;;;;;;;;5410298;26;20401;-76
2024/04/13 06:34:03;;;;;;;0.70;0.70;;;;;;;;;;5409706;26;20284;-74
2024/04/13 06:36:31;;;;;;;0.70;0.70;;;;;;;;;;5408825;26;20334;-76
2024/04/13 06:38:56;;;;;;;0.70;0.70;;;;;;;;;;5409975;26;20273;-75
2024/04/13 06:41:24;;;;;;;0.60;0.60;;;;;;;;;;5412697;26;20377;-74
2024/04/13 06:43:50;;;;;;;0.70;0.70;;;;;;;;;;5405011;26;20729;-75
2024/04/13 06:46:18;;;;;;;0.70;0.70;;;;;;;;;;5418235;26;20291;-75
2024/04/13 06:48:43;;;;;;;0.70;0.70;;;;;;;;;;5414636;26;20841;-75
2024/04/13 06:51:14;;;;;;;0.70;0.70;;;;;;;;;;5408778;26;20239;-75
2024/04/13 06:53:39;;;;;;;0.70;0.70;;;;;;;;;;5414990;26;20919;-75
2024/04/13 06:56:09;;;;;;;0.70;0.70;;;;;;;;;;5418168;26;20236;-75
2024/04/13 06:58:34;;;;;;;0.70;0.70;;;;;;;;;;5413532;26;20299;-75
2024/04/13 07:01:02;;;;;;;0.90;0.90;;;;;;;;;;5411859;26;20311;-75
2024/04/13 07:03:27;;;;;;;0.80;0.80;;;;;;;;;;5410455;26;21065;-75
2024/04/13 07:06:00;;;;;;;0.73;0.73;;;;;;;;;;5415507;26;20251;-76
2024/04/13 07:08:28;;;;;;;0.70;0.70;;;;;;;;;;5418237;26;20722;-75
2024/04/13 07:10:56;;;;;;;0.60;0.60;;;;;;;;;;5408910;26;20315;-75
2024/04/13 07:13:22;;;;;;;0.77;0.77;;;;;;;;;;5418395;26;20275;-75
2024/04/13 07:15:50;;;;;;;0.70;0.70;;;;;;;;;;5430606;26;20327;-75
2024/04/13 07:18:15;;;;;;;0.60;0.60;;;;;;;;;;5435662;26;20274;-76
2024/04/13 07:20:43;;;;;;;0.70;0.70;;;;;;;;;;5422645;26;20239;-75
2024/04/13 07:23:09;;;;;;;0.65;0.65;;;;;;;;;;5413875;26;20556;-76
2024/04/13 07:25:40;;;;;;;0.60;0.60;;;;;;;;;;5414569;26;20248;-76
2024/04/13 07:28:05;;;;;;;0.70;0.70;;;;;;;;;;5412136;26;20269;-76
2024/04/13 07:30:33;;;;;;;0.60;0.60;;;;;;;;;;5417240;26;20247;-73
2024/04/13 07:32:59;;;;;;;0.60;0.60;;;;;;;;;;5432384;26;20741;-76
2024/04/13 07:35:27;;;;;;;0.70;0.70;;;;;;;;;;5413542;26;20237;-76
2024/04/13 07:37:52;;;;;;;0.70;0.70;;;;;;;;;;5407916;26;20943;-76
2024/04/13 07:40:20;;;;;;;0.73;0.73;;;;;;;;;;5406811;26;20310;-76
2024/04/13 07:42:48;;;;;;;0.70;0.70;;;;;;;;;;5424976;26;20243;-76
2024/04/13 07:45:16;;;;;;;0.80;0.80;;;;;;;;;;5417172;26;20331;-76
2024/04/13 07:47:42;;;;;;;0.70;0.70;;;;;;;;;;5429400;26;21127;-75
2024/04/13 07:50:10;;;;;;;0.70;0.70;;;;;;;;;;5422379;26;20237;-75
2024/04/13 07:52:35;;;;;;;0.75;0.75;;;;;;;;;;5415079;26;25115;-75
2024/04/13 07:55:03;;;;;;;0.70;0.70;;;;;;;;;;5422693;26;20291;-76
2024/04/13 07:57:29;;;;;;;0.70;0.70;;;;;;;;;;5424590;26;20254;-76
2024/04/13 07:59:59;;;;;;;0.70;0.70;;;;;;;;;;5425794;26;20235;-76
2024/04/13 08:02:25;;;;;;;0.73;0.73;;;;;;;;;;5407700;26;20295;-75
2024/04/13 08:04:53;;;;;;;0.70;0.70;;;;;;;;;;5405842;26;20247;-75
2024/04/13 08:07:18;;;;;;;0.80;0.80;;;;;;;;;;5406406;26;20913;-76
2024/04/13 08:09:46;;;;;;;0.60;0.60;;;;;;;;;;5411065;26;20235;-76
2024/04/13 08:12:12;;;;;;;0.70;0.70;;;;;;;;;;5419749;26;20286;-76
2024/04/13 08:14:40;;;;;;;0.80;0.80;;;;;;;;;;5408420;26;20540;-76
2024/04/13 08:17:08;;;;;;;0.70;0.70;;;;;;;;;;5402735;26;23707;-76
2024/04/13 08:19:36;;;;;;;0.70;0.70;;;;;;;;;;5402704;26;21000;-75
2024/04/13 08:22:02;;;;;;;0.70;0.70;;;;;;;;;;5397517;26;20336;-75
2024/04/13 08:24:30;;;;;;;0.73;0.73;;;;;;;;;;5403813;26;20279;-75
2024/04/13 08:26:56;;;;;;;0.60;0.60;;;;;;;;;;5401919;26;20819;-75
2024/04/13 08:29:24;;;;;;;0.75;0.75;;;;;;;;;;5409829;26;20319;-74
2024/04/13 08:31:49;;;;;;;0.70;0.70;;;;;;;;;;5412029;26;20566;-76
2024/04/13 08:34:20;;;;;;;0.60;0.60;;;;;;;;;;5408961;26;20247;-74
2024/04/13 08:36:45;;;;;;;0.60;0.60;;;;;;;;;;5416442;26;20263;-76
2024/04/13 08:39:14;;;;;;;0.70;0.70;;;;;;;;;;5408874;26;20926;-75
2024/04/13 08:41:42;;;;;;;0.80;0.80;;;;;;;;;;5409070;26;20328;-76
2024/04/13 08:44:10;;;;;;;0.60;0.60;;;;;;;;;;5428219;26;20363;-75
2024/04/13 08:46:35;;;;;;;0.68;0.68;;;;;;;;;;5424503;26;20248;-75
2024/04/13 08:49:04;;;;;;;0.70;0.70;;;;;;;;;;5430257;26;20249;-75
2024/04/13 08:51:33;;;;;;;0.60;0.60;;;;;;;;;;5428311;26;20260;-75
2024/04/13 08:54:02;;;;;;;0.60;0.60;;;;;;;;;;5426083;26;20308;-75
2024/04/13 08:56:28;;;;;;;0.70;0.70;;;;;;;;;;5413225;26;20287;-75
2024/04/13 08:58:57;;;;;;;0.60;0.60;;;;;;;;;;5406263;26;21229;-78
2024/04/13 09:01:24;;;;;;;0.70;0.70;;;;;;;;;;5420314;26;20247;-76
2024/04/13 09:03:52;;;;;;;0.70;0.70;;;;;;;;;;5406081;26;20350;-75
2024/04/13 09:06:18;;;;;;;0.70;0.70;;;;;;;;;;5402081;26;20325;-75
2024/04/13 09:08:49;;;;;;;0.70;0.70;;;;;;;;;;5400025;26;20328;-75
2024/04/13 09:11:15;;;;;;;0.60;0.60;;;;;;;;;;5404242;26;20251;-75
2024/04/13 09:13:43;;;;;;;0.70;0.70;;;;;;;;;;5403176;26;20908;-75
2024/04/13 09:16:09;;;;;;;0.63;0.63;;;;;;;;;;5403969;26;20988;-75
2024/04/13 09:18:37;;;;;;;0.60;0.60;;;;;;;;;;5403284;26;20239;-75
2024/04/13 09:21:04;;;;;;;0.68;0.68;;;;;;;;;;5400649;26;21039;-76
2024/04/13 09:23:32;;;;;;;0.70;0.70;;;;;;;;;;5402545;26;20247;-75
2024/04/13 09:26:04;;;;;;;0.60;0.60;;;;;;;;;;5400849;26;20327;-75
2024/04/13 09:28:41;;;;;;;0.70;0.70;;;;;;;;;;5404786;26;20337;-75
2024/04/13 09:31:08;;;;;;;0.68;0.68;;;;;;;;;;5392351;26;21247;-75
2024/04/13 09:33:37;;;;;;;0.60;0.60;;;;;;;;;;5388295;26;20235;-75
2024/04/13 09:36:02;;;;;;;0.70;0.70;;;;;;;;;;5388515;26;20339;-75
2024/04/13 09:38:31;;;;;;;0.73;0.73;;;;;;;;;;5387980;26;20255;-75
2024/04/13 09:40:56;;;;;;;0.70;0.70;;;;;;;;;;5385087;26;20338;-75
2024/04/13 09:43:27;;;;;;;0.70;0.70;;;;;;;;;;5390263;26;22473;-75
2024/04/13 09:45:56;;;;;;;0.82;0.82;;;;;;;;;;5387180;26;20243;-75
2024/04/13 09:48:24;;;;;;;1.80;1.50;;;;;;;;;;5385269;26;20312;-75
2024/04/13 09:50:50;;;;;;;0.65;0.65;;;;;;;;;;5390865;26;21042;-75
2024/04/13 09:53:19;;;;;;;0.60;0.60;;;;;;;;;;5387531;26;20889;-76
2024/04/13 09:55:44;;;;;;;0.65;0.65;;;;;;;;;;5389846;26;20768;-75
2024/04/13 09:58:14;;;;;;;0.70;0.70;;;;;;;;;;5392672;26;20326;-76
2024/04/13 10:00:43;;;;;;;0.70;0.70;;;;;;;;;;5392270;26;20299;-75
2024/04/13 10:03:11;;;;;;;0.60;0.60;;;;;;;;;;5393196;26;20247;-74
2024/04/13 10:05:37;;;;;;;1.60;1.55;;;;;;;;;;5393973;26;20298;-75
2024/04/13 10:08:08;;;;;;;0.60;0.60;;;;;;;;;;5390947;26;20334;-75
2024/04/13 10:10:34;;;;;;;0.70;0.70;;;;;;;;;;5394911;26;20588;-75
2024/04/13 10:13:03;;;;;;;0.70;0.70;;;;;;;;;;5387327;26;20244;-76
2024/04/13 10:15:28;;;;;;;0.60;0.60;;;;;;;;;;5395002;26;20842;-75
2024/04/13 10:17:59;;;;;;;0.60;0.60;;;;;;;;;;5395537;26;20990;-75
2024/04/13 10:20:26;;;;;;;0.80;0.80;;;;;;;;;;5386394;26;20334;-75
2024/04/13 10:22:55;;;;;;;0.70;0.70;;;;;;;;;;5392600;26;21241;-76
2024/04/13 10:25:25;;;;;;;0.70;0.70;;;;;;;;;;5401156;26;20307;-75
2024/04/13 10:28:04;;;;;;;0.70;0.70;;;;;;;;;;5389772;26;20294;-74
2024/04/13 10:30:40;;;;;;;0.70;0.70;;;;;;;;;;5392355;26;20247;-75
2024/04/13 10:33:18;;;;;;;0.80;0.80;;;;;;;;;;5391513;26;20528;-76
2024/04/13 10:35:49;;;;;;;0.70;0.70;;;;;;;;;;5402325;26;20343;-75
2024/04/13 10:38:18;;;;;;;0.50;0.50;;;;;;;;;;5401671;26;20239;-75
2024/04/13 10:40:43;;;;;;;0.70;0.70;;;;;;;;;;5402643;26;20295;-75
2024/04/13 10:43:17;;;;;;;0.60;0.60;;;;;;;;;;5400027;26;20243;-76
2024/04/13 10:45:48;;;;;;;0.60;0.60;;;;;;;;;;5406194;26;20290;-76
2024/04/13 10:48:19;;;;;;;0.80;0.80;;;;;;;;;;5407053;26;20279;-74
2024/04/13 10:50:45;;;;;;;0.60;0.60;;;;;;;;;;5403601;26;21104;-75
2024/04/13 10:53:13;;;;;;;0.70;0.70;;;;;;;;;;5404192;26;20239;-76
2024/04/13 10:55:39;;;;;;;0.60;0.60;;;;;;;;;;5404132;26;20277;-76
2024/04/13 10:58:08;;;;;;;0.70;0.70;;;;;;;;;;5406617;26;20232;-75
2024/04/13 11:00:33;;;;;;;0.70;0.70;;;;;;;;;;5412550;26;20335;-76
2024/04/13 11:03:02;;;;;;;0.65;0.65;;;;;;;;;;5406544;26;20235;-75
2024/04/13 11:05:30;;;;;;;0.60;0.60;;;;;;;;;;5409520;26;21751;-74
2024/04/13 11:07:59;;;;;;;0.70;0.70;;;;;;;;;;5404736;26;21051;-76
2024/04/13 11:10:25;;;;;;;0.70;0.70;;;;;;;;;;5408274;26;20725;-76
2024/04/13 11:12:53;;;;;;;0.90;0.90;;;;;;;;;;5408547;26;20248;-76
2024/04/13 11:15:19;;;;;;;0.60;0.60;;;;;;;;;;5408072;26;20307;-75
2024/04/13 11:17:47;;;;;;;0.60;0.60;;;;;;;;;;5402845;26;20291;-75
2024/04/13 11:20:12;;;;;;;0.70;0.70;;;;;;;;;;5406794;26;20934;-75
2024/04/13 11:22:43;;;;;;;0.63;0.63;;;;;;;;;;5406185;26;20251;-76
2024/04/13 11:25:08;;;;;;;0.70;0.70;;;;;;;;;;5407026;26;20287;-76
2024/04/13 11:27:36;;;;;;;0.65;0.65;;;;;;;;;;5401442;26;20534;-76
2024/04/13 11:30:02;;;;;;;0.75;0.75;;;;;;;;;;5409490;26;20314;-75
2024/04/13 11:32:30;;;;;;;0.90;0.90;;;;;;;;;;5401931;26;20291;-75
2024/04/13 11:34:56;;;;;;;0.70;0.70;;;;;;;;;;5405762;26;20294;-76
2024/04/13 11:37:24;;;;;;;0.70;0.70;;;;;;;;;;5406166;26;20294;-76
2024/04/13 11:39:52;;;;;;;0.60;0.60;;;;;;;;;;5409594;26;22763;-75
2024/04/13 11:42:21;;;;;;;0.80;0.80;;;;;;;;;;5405439;26;20262;-75
2024/04/13 11:44:48;;;;;;;0.68;0.68;;;;;;;;;;5422478;26;20244;-75
2024/04/13 11:47:17;;;;;;;0.60;0.60;;;;;;;;;;5403092;26;20307;-75
2024/04/13 11:49:42;;;;;;;0.70;0.70;;;;;;;;;;5405836;26;20326;-76
2024/04/13 11:52:12;;;;;;;0.70;0.70;;;;;;;;;;5404191;26;20632;-76
2024/04/13 11:54:38;;;;;;;0.70;0.70;;;;;;;;;;5408668;26;20307;-76
2024/04/13 11:57:15;;;;;;;0.60;0.60;;;;;;;;;;5403920;26;20323;-74
2024/04/13 11:59:41;;;;;;;0.80;0.80;;;;;;;;;;5409365;26;20387;-76
2024/04/13 12:02:09;;;;;;;0.70;0.70;;;;;;;;;;5408853;26;20259;-75
2024/04/13 12:04:34;;;;;;;0.70;0.70;;;;;;;;;;5407688;26;20256;-75
2024/04/13 12:07:02;;;;;;;0.70;0.70;;;;;;;;;;5405994;26;20298;-76
2024/04/13 12:09:28;;;;;;;1.55;1.45;;;;;;;;;;5405432;26;21696;-76
2024/04/13 12:11:56;;;;;;;0.63;0.63;;;;;;;;;;5405313;26;20304;-76
2024/04/13 12:14:24;;;;;;;0.60;0.60;;;;;;;;;;5405859;26;20326;-75
2024/04/13 12:16:52;;;;;;;0.82;0.82;;;;;;;;;;5402768;26;20248;-76
2024/04/13 12:19:17;;;;;;;0.80;0.80;;;;;;;;;;5407802;26;20622;-74
2024/04/13 12:21:45;;;;;;;0.77;0.77;;;;;;;;;;5403237;26;21172;-75
2024/04/13 12:24:11;;;;;;;0.60;0.60;;;;;;;;;;5406164;26;20565;-76
2024/04/13 12:26:39;;;;;;;0.70;0.70;;;;;;;;;;5407929;26;20252;-76
2024/04/13 12:29:04;;;;;;;0.70;0.70;;;;;;;;;;5408290;26;21556;-75
2024/04/13 12:31:35;;;;;;;0.80;0.80;;;;;;;;;;5405966;26;20240;-76
2024/04/13 12:34:00;;;;;;;0.75;0.75;;;;;;;;;;5403291;26;20590;-74
2024/04/13 12:36:28;;;;;;;0.60;0.60;;;;;;;;;;5407656;26;21202;-76
2024/04/13 12:38:54;;;;;;;0.70;0.70;;;;;;;;;;5410962;26;20343;-76
2024/04/13 12:41:22;;;;;;;0.70;0.70;;;;;;;;;;5406680;26;20263;-74
2024/04/13 12:43:48;;;;;;;0.70;0.70;;;;;;;;;;5403655;26;20377;-77
2024/04/13 12:46:16;;;;;;;0.70;0.70;;;;;;;;;;5407657;26;20255;-75
2024/04/13 12:48:44;;;;;;;0.70;0.70;;;;;;;;;;5409171;26;20377;-75
2024/04/13 12:51:13;;;;;;;0.70;0.70;;;;;;;;;;5415186;26;20248;-74
2024/04/13 12:53:39;;;;;;;0.70;0.70;;;;;;;;;;5404977;26;21081;-76
2024/04/13 12:56:08;;;;;;;0.70;0.70;;;;;;;;;;5408046;26;20368;-75
2024/04/13 12:58:33;;;;;;;0.60;0.60;;;;;;;;;;5408688;26;20304;-75
2024/04/13 13:01:01;;;;;;;0.60;0.60;;;;;;;;;;5409854;26;20304;-75
2024/04/13 13:03:27;;;;;;;0.70;0.70;;;;;;;;;;5406630;26;20275;-76
2024/04/13 13:06:00;;;;;;;0.70;0.70;;;;;;;;;;5402023;26;20784;-75
2024/04/13 13:08:25;;;;;;;0.60;0.60;;;;;;;;;;5408887;26;20249;-75
2024/04/13 13:10:53;;;;;;;0.70;0.70;;;;;;;;;;5412128;26;20291;-77
2024/04/13 13:13:19;;;;;;;1.15;1.15;;;;;;;;;;5407564;26;20300;-75
2024/04/13 13:15:47;;;;;;;0.70;0.70;;;;;;;;;;5404252;26;21657;-75
2024/04/13 13:18:12;;;;;;;0.60;0.60;;;;;;;;;;5406643;26;20247;-76
2024/04/13 13:20:43;;;;;;;0.60;0.60;;;;;;;;;;5405482;26;20327;-75
2024/04/13 13:23:11;;;;;;;0.60;0.60;;;;;;;;;;5402541;26;20259;-75
2024/04/13 13:25:39;;;;;;;0.65;0.65;;;;;;;;;;5403910;26;20279;-75
2024/04/13 13:28:04;;;;;;;0.60;0.60;;;;;;;;;;5402413;26;20752;-76
2024/04/13 13:30:37;;;;;;;0.70;0.70;;;;;;;;;;5407070;26;20291;-75
2024/04/13 13:33:03;;;;;;;0.70;0.70;;;;;;;;;;5392837;26;20341;-75
2024/04/13 13:35:31;;;;;;;0.70;0.70;;;;;;;;;;5394907;26;20312;-76
2024/04/13 13:37:56;;;;;;;0.70;0.70;;;;;;;;;;5396732;26;20251;-75
2024/04/13 13:40:27;;;;;;;0.70;0.70;;;;;;;;;;5396251;26;20579;-75
2024/04/13 13:42:52;;;;;;;0.75;0.75;;;;;;;;;;5395731;26;20630;-75
2024/04/13 13:45:21;;;;;;;0.65;0.65;;;;;;;;;;5410392;26;20790;-76
2024/04/13 13:47:47;;;;;;;0.63;0.63;;;;;;;;;;5408463;26;20573;-75
2024/04/13 13:50:15;;;;;;;0.70;0.70;;;;;;;;;;5396228;26;21039;-75
2024/04/13 13:52:41;;;;;;;0.80;0.80;;;;;;;;;;5403371;26;20339;-76
2024/04/13 13:55:10;;;;;;;0.70;0.70;;;;;;;;;;5398179;26;20678;-75
2024/04/13 13:57:38;;;;;;;0.70;0.70;;;;;;;;;;5422627;26;20240;-75
2024/04/13 14:00:07;;;;;;;0.63;0.63;;;;;;;;;;5407785;26;20294;-76
2024/04/13 14:02:32;;;;;;;0.70;0.70;;;;;;;;;;5416723;26;20294;-75
2024/04/13 14:05:01;;;;;;;0.60;0.60;;;;;;;;;;5411406;26;20286;-75
2024/04/13 14:07:27;;;;;;;0.70;0.70;;;;;;;;;;5417475;26;20263;-76
2024/04/13 14:09:55;;;;;;;0.93;0.93;;;;;;;;;;5402393;26;20404;-75
2024/04/13 14:12:20;;;;;;;0.60;0.60;;;;;;;;;;5401189;26;20243;-76
2024/04/13 14:14:51;;;;;;;0.80;0.80;;;;;;;;;;5403733;26;20244;-75
2024/04/13 14:17:16;;;;;;;0.68;0.68;;;;;;;;;;5416701;26;20256;-76
2024/04/13 14:19:44;;;;;;;0.60;0.60;;;;;;;;;;5410020;26;21362;-76
2024/04/13 14:22:10;;;;;;;0.68;0.68;;;;;;;;;;5418387;26;20249;-76
2024/04/13 14:24:38;;;;;;;0.77;0.77;;;;;;;;;;5405814;26;20974;-76
2024/04/13 14:27:04;;;;;;;0.60;0.60;;;;;;;;;;5417959;26;20611;-75
2024/04/13 14:29:32;;;;;;;0.88;0.88;;;;;;;;;;5409504;26;20252;-76
2024/04/13 14:32:00;;;;;;;1.23;1.23;;;;;;;;;;5401685;26;20244;-76
2024/04/13 14:34:28;;;;;;;0.80;0.80;;;;;;;;;;5410324;26;20243;-75
2024/04/13 14:36:53;;;;;;;0.65;0.65;;;;;;;;;;5418442;26;20290;-76
2024/04/13 14:39:21;;;;;;;0.70;0.70;;;;;;;;;;5402777;26;20243;-75
2024/04/13 14:41:47;;;;;;;0.60;0.60;;;;;;;;;;5403733;26;20259;-75
2024/04/13 14:44:15;;;;;;;0.60;0.60;;;;;;;;;;5419980;26;20919;-74